createdAt,value
2022-10-05T00:03:22.500Z,6.93
2022-10-05T00:08:43.402Z,6.45
2022-10-05T00:14:15.201Z,5.28
2022-10-05T00:19:39.626Z,5.30
2022-10-05T00:25:02.624Z,4.57
2022-10-05T00:30:26.298Z,4.50
2022-10-05T00:35:47.002Z,4.65
2022-10-05T00:41:22.971Z,4.13
2022-10-05T00:46:55.579Z,4.47
2022-10-05T00:52:38.002Z,3.67
2022-10-05T00:58:07.930Z,4.40
2022-10-05T01:03:54.660Z,4.28
2022-10-05T01:09:44.494Z,3.67
2022-10-05T01:15:27.596Z,4.20
2022-10-05T01:21:11.063Z,4.80
2022-10-05T01:26:53.884Z,5.15
2022-10-05T01:32:32.284Z,4.13
2022-10-05T01:38:01.285Z,4.57
2022-10-05T01:43:44.314Z,4.82
2022-10-05T01:49:23.902Z,4.97
2022-10-05T01:55:01.385Z,6.18
2022-10-05T02:00:21.844Z,7.10
2022-10-05T02:06:01.539Z,7.78
2022-10-05T02:11:23.855Z,6.60
2022-10-05T02:16:48.396Z,7.63
2022-10-05T02:22:15.640Z,6.70
2022-10-05T02:27:45.794Z,7.22
2022-10-05T02:33:10.333Z,7.57
2022-10-05T02:38:37.183Z,6.63
2022-10-05T02:44:17.485Z,5.32
2022-10-05T02:49:50.574Z,5.30
2022-10-05T02:55:21.150Z,4.85
2022-10-05T03:00:57.693Z,4.97
2022-10-05T03:06:30.817Z,4.43
2022-10-05T03:12:12.637Z,6.03
2022-10-05T03:17:49.411Z,5.25
2022-10-05T03:23:25.227Z,5.25
2022-10-05T03:28:55.131Z,6.65
2022-10-05T03:34:42.352Z,6.35
2022-10-05T03:40:20.508Z,5.18
2022-10-05T03:45:53.063Z,6.90
2022-10-05T03:51:31.108Z,6.55
2022-10-05T03:56:57.199Z,6.63
2022-10-05T04:02:31.137Z,6.35
2022-10-05T04:08:00.469Z,7.05
2022-10-05T04:13:31.605Z,6.57
2022-10-05T04:19:02.464Z,10.35
2022-10-05T04:24:40.705Z,6.03
2022-10-05T04:30:09.215Z,6.95
2022-10-05T04:35:40.195Z,6.72
2022-10-05T04:41:24.802Z,7.15
2022-10-05T04:47:08.179Z,7.13
2022-10-05T04:52:44.301Z,6.78
2022-10-05T04:58:24.020Z,5.40
2022-10-05T05:04:02.934Z,5.20
2022-10-05T05:09:53.709Z,6.95
2022-10-05T05:15:46.987Z,5.68
2022-10-05T05:22:01.246Z,5.25
2022-10-05T05:27:50.711Z,6.38
2022-10-05T05:33:36.003Z,4.70
2022-10-05T05:39:08.951Z,4.55
2022-10-05T05:44:38.778Z,4.57
2022-10-05T05:50:24.506Z,4.18
2022-10-05T05:55:50.523Z,5.80
2022-10-05T06:01:32.917Z,5.15
2022-10-05T06:07:01.141Z,5.00
2022-10-05T06:12:32.088Z,4.32
2022-10-05T06:17:56.220Z,4.97
2022-10-05T06:23:33.138Z,5.10
2022-10-05T06:29:04.034Z,4.90
2022-10-05T06:34:43.322Z,4.97
2022-10-05T06:40:09.376Z,4.25
2022-10-05T06:45:59.644Z,4.47
2022-10-05T06:51:54.249Z,4.60
2022-10-05T06:57:44.730Z,4.47
2022-10-05T07:03:18.001Z,4.97
2022-10-05T07:09:06.530Z,5.60
2022-10-05T07:15:18.414Z,4.65
2022-10-05T07:20:52.916Z,4.95
2022-10-05T07:26:22.871Z,4.88
2022-10-05T07:32:01.926Z,4.05
2022-10-05T07:37:57.699Z,4.80
2022-10-05T07:44:00.885Z,3.10
2022-10-05T07:49:41.868Z,4.25
2022-10-05T07:55:20.027Z,3.13
2022-10-05T08:00:41.437Z,4.40
2022-10-05T08:06:05.740Z,4.25
2022-10-05T08:12:11.456Z,3.55
2022-10-05T08:17:41.025Z,3.17
2022-10-05T08:23:23.699Z,3.30
2022-10-05T08:28:53.987Z,4.88
2022-10-05T08:34:23.584Z,3.95
2022-10-05T08:40:06.209Z,3.58
2022-10-05T08:46:06.137Z,4.22
2022-10-05T08:51:48.987Z,4.78
2022-10-05T08:57:27.634Z,4.50
2022-10-05T09:03:25.983Z,3.38
2022-10-05T09:08:59.490Z,4.18
2022-10-05T09:15:24.297Z,5.50
2022-10-05T09:20:53.430Z,4.03
2022-10-05T09:26:29.311Z,4.60
2022-10-05T09:32:16.469Z,4.75
2022-10-05T09:38:11.020Z,5.80
2022-10-05T09:44:16.658Z,5.03
2022-10-05T09:50:06.200Z,4.37
2022-10-05T09:56:01.197Z,3.03
2022-10-05T10:01:34.107Z,5.35
2022-10-05T10:07:41.881Z,5.07
2022-10-05T10:13:05.569Z,3.35
2022-10-05T10:18:47.239Z,5.53
2022-10-05T10:24:16.171Z,3.17
2022-10-05T10:29:43.022Z,5.00
2022-10-05T10:35:39.352Z,4.85
2022-10-05T10:41:21.601Z,4.18
2022-10-05T10:46:48.746Z,5.80
2022-10-05T10:52:47.075Z,4.90
2022-10-05T10:58:58.767Z,4.90
2022-10-05T11:04:58.751Z,5.55
2022-10-05T11:10:21.794Z,5.25
2022-10-05T11:21:36.794Z,3.28
2022-10-05T11:27:35.043Z,5.05
2022-10-05T11:33:15.849Z,4.00
2022-10-05T11:38:51.713Z,4.18
2022-10-05T11:44:31.065Z,4.30
2022-10-05T11:49:54.366Z,4.05
2022-10-05T11:55:24.105Z,4.60
2022-10-05T12:01:06.292Z,3.67
2022-10-05T12:06:42.438Z,2.53
2022-10-05T12:12:17.898Z,3.35
2022-10-05T12:25:48.236Z,3.90
2022-10-05T12:31:22.948Z,4.32
2022-10-05T12:37:08.268Z,3.65
2022-10-05T12:42:43.328Z,4.40
2022-10-05T12:48:36.649Z,4.25
2022-10-05T12:54:06.346Z,3.92
2022-10-05T12:59:52.584Z,4.32
2022-10-05T13:05:24.602Z,4.15
2022-10-05T13:11:05.464Z,4.57
2022-10-05T13:16:38.373Z,4.13
2022-10-05T13:22:23.620Z,2.72
2022-10-05T13:28:02.403Z,3.60
2022-10-05T13:34:05.027Z,3.90
2022-10-05T13:39:50.195Z,5.30
2022-10-05T13:45:23.243Z,3.35
2022-10-05T13:50:55.346Z,2.45
2022-10-05T13:56:22.481Z,4.38
2022-10-05T14:01:52.594Z,3.40
2022-10-05T14:07:31.955Z,4.07
2022-10-05T14:12:55.225Z,3.58
2022-10-05T14:18:24.282Z,5.68
2022-10-05T14:23:45.133Z,4.45
2022-10-05T14:29:14.438Z,4.13
2022-10-05T14:34:39.256Z,4.45
2022-10-05T14:40:35.117Z,5.78
2022-10-05T14:46:24.995Z,4.22
2022-10-05T14:51:53.745Z,4.53
2022-10-05T14:57:32.054Z,4.05
2022-10-05T15:03:06.351Z,4.25
2022-10-05T15:08:49.772Z,4.15
2022-10-05T15:14:28.887Z,4.57
2022-10-05T15:19:52.705Z,3.85
2022-10-05T15:25:27.087Z,4.43
2022-10-05T15:31:00.141Z,4.47
2022-10-05T15:36:43.277Z,5.00
2022-10-05T15:42:09.846Z,4.38
2022-10-05T15:47:47.369Z,4.28
2022-10-05T15:53:13.860Z,4.22
2022-10-05T15:58:55.456Z,3.85
2022-10-05T16:04:30.496Z,4.72
2022-10-05T16:10:17.393Z,5.95
2022-10-05T16:15:48.497Z,6.18
2022-10-05T16:21:29.318Z,5.53
2022-10-05T16:26:57.463Z,4.85
2022-10-05T16:32:30.462Z,6.38
2022-10-05T16:38:14.561Z,5.35
2022-10-05T16:44:32.842Z,5.47
2022-10-05T16:50:06.564Z,5.00
2022-10-05T16:55:51.497Z,6.05
2022-10-05T17:01:56.540Z,4.80
2022-10-05T17:07:34.976Z,4.90
2022-10-05T17:13:11.592Z,5.20
2022-10-05T17:18:54.751Z,4.63
2022-10-05T17:24:29.408Z,6.85
2022-10-05T17:35:20.533Z,5.53
2022-10-05T17:41:15.857Z,5.18
2022-10-05T17:46:39.925Z,3.92
2022-10-05T17:52:27.995Z,5.10
2022-10-05T17:57:48.563Z,5.30
2022-10-05T18:03:36.282Z,5.05
2022-10-05T18:09:20.662Z,4.65
2022-10-05T18:14:55.932Z,4.82
2022-10-05T18:20:30.177Z,4.93
2022-10-05T18:26:07.615Z,5.78
2022-10-05T18:31:41.832Z,4.72
2022-10-05T18:37:21.485Z,5.20
2022-10-05T18:43:26.519Z,5.45
2022-10-05T18:49:07.086Z,5.00
2022-10-05T18:54:47.972Z,5.43
2022-10-05T19:00:22.958Z,5.05
2022-10-05T19:06:06.589Z,5.30
2022-10-05T19:11:41.078Z,4.65
2022-10-05T19:17:32.294Z,6.32
2022-10-05T19:23:12.045Z,6.13
2022-10-05T19:28:38.609Z,4.53
2022-10-05T19:34:32.891Z,6.05
2022-10-05T19:40:04.509Z,4.45
2022-10-05T19:45:31.893Z,5.60
2022-10-05T19:50:55.224Z,5.60
2022-10-05T19:56:21.449Z,5.32
2022-10-05T20:01:49.420Z,8.10
2022-10-05T20:07:21.635Z,6.85
2022-10-05T20:12:50.742Z,6.90
2022-10-05T20:18:55.006Z,4.20
2022-10-05T20:24:25.843Z,3.10
2022-10-05T20:29:46.826Z,2.55
2022-10-05T20:43:08.227Z,2.42
2022-10-05T20:48:29.186Z,2.45
2022-10-05T20:53:50.031Z,1.60
2022-10-05T20:59:10.441Z,2.50
2022-10-05T21:04:40.364Z,2.45
2022-10-05T21:10:03.284Z,2.30
2022-10-05T21:15:23.867Z,2.80
2022-10-05T21:20:46.596Z,1.50
2022-10-05T21:26:07.953Z,2.05
2022-10-05T21:31:29.166Z,3.35
2022-10-05T21:36:49.731Z,2.65
2022-10-05T21:42:10.407Z,2.97
2022-10-05T21:47:30.831Z,2.97
2022-10-05T21:52:52.229Z,2.00
2022-10-05T21:58:13.892Z,2.33
2022-10-05T22:03:35.363Z,3.50
2022-10-05T22:08:56.269Z,2.92
2022-10-05T22:14:17.108Z,2.50
2022-10-05T22:19:37.606Z,2.05
2022-10-05T22:24:58.076Z,1.40
2022-10-05T22:30:19.966Z,2.47
2022-10-05T22:35:41.999Z,2.15
2022-10-05T22:41:02.919Z,2.45
2022-10-05T22:46:23.977Z,3.00
2022-10-05T22:51:44.891Z,3.00
2022-10-05T22:57:05.699Z,2.63
2022-10-05T23:02:26.782Z,2.92
2022-10-05T23:07:47.857Z,2.67
2022-10-05T23:13:08.687Z,3.00
2022-10-05T23:18:29.610Z,2.85
2022-10-05T23:23:53.582Z,1.40
2022-10-05T23:29:14.339Z,1.37
2022-10-05T23:34:35.147Z,2.25
2022-10-05T23:39:55.473Z,3.63
2022-10-05T23:45:17.474Z,2.63
2022-10-05T23:50:37.914Z,2.78
2022-10-05T23:55:58.988Z,2.47
